sensor_id;sensor_type;location;lat;lon;timestamp;pressure;altitude;pressure_sealevel;temperature;humidity
77027;BME280;65956;52.986;17.490;2023-02-01T00:01:08;99154.56;;;2.35;84.96
77027;BME280;65956;52.986;17.490;2023-02-01T00:03:36;99160.40;;;2.41;84.93
77027;BME280;65956;52.986;17.490;2023-02-01T00:06:03;99162.36;;;2.46;84.75
77027;BME280;65956;52.986;17.490;2023-02-01T00:08:31;99155.85;;;2.46;84.62
77027;BME280;65956;52.986;17.490;2023-02-01T00:11:00;99152.02;;;2.42;84.82
77027;BME280;65956;52.986;17.490;2023-02-01T00:13:33;99149.71;;;2.38;84.89
77027;BME280;65956;52.986;17.490;2023-02-01T00:16:17;99152.55;;;2.34;85.02
77027;BME280;65956;52.986;17.490;2023-02-01T00:18:46;99159.73;;;2.29;85.17
77027;BME280;65956;52.986;17.490;2023-02-01T00:21:15;99157.93;;;2.29;85.54
77027;BME280;65956;52.986;17.490;2023-02-01T00:23:42;99163.20;;;2.29;85.40
77027;BME280;65956;52.986;17.490;2023-02-01T00:26:33;99156.89;;;2.29;85.49
77027;BME280;65956;52.986;17.490;2023-02-01T00:29:03;99154.52;;;2.31;85.62
77027;BME280;65956;52.986;17.490;2023-02-01T00:31:31;99157.77;;;2.35;85.66
77027;BME280;65956;52.986;17.490;2023-02-01T00:33:58;99163.33;;;2.34;85.85
77027;BME280;65956;52.986;17.490;2023-02-01T00:36:26;99161.63;;;2.32;86.01
77027;BME280;65956;52.986;17.490;2023-02-01T00:38:53;99167.15;;;2.33;86.02
77027;BME280;65956;52.986;17.490;2023-02-01T00:41:21;99171.77;;;2.33;86.19
77027;BME280;65956;52.986;17.490;2023-02-01T00:43:50;99166.23;;;2.31;86.31
77027;BME280;65956;52.986;17.490;2023-02-01T00:46:19;99157.99;;;2.29;86.37
77027;BME280;65956;52.986;17.490;2023-02-01T00:48:49;99158.30;;;2.28;86.49
77027;BME280;65956;52.986;17.490;2023-02-01T00:51:20;99159.14;;;2.30;86.45
77027;BME280;65956;52.986;17.490;2023-02-01T00:53:48;99155.91;;;2.30;86.59
77027;BME280;65956;52.986;17.490;2023-02-01T00:56:16;99150.66;;;2.31;86.53
77027;BME280;65956;52.986;17.490;2023-02-01T00:58:44;99150.89;;;2.38;86.02
77027;BME280;65956;52.986;17.490;2023-02-01T01:01:17;99156.36;;;2.45;85.46
77027;BME280;65956;52.986;17.490;2023-02-01T01:03:53;99147.48;;;2.47;85.07
77027;BME280;65956;52.986;17.490;2023-02-01T01:06:30;99152.87;;;2.49;84.52
77027;BME280;65956;52.986;17.490;2023-02-01T01:09:00;99158.61;;;2.54;83.94
77027;BME280;65956;52.986;17.490;2023-02-01T01:11:30;99149.34;;;2.57;83.69
77027;BME280;65956;52.986;17.490;2023-02-01T01:13:59;99150.20;;;2.57;83.14
77027;BME280;65956;52.986;17.490;2023-02-01T01:16:28;99144.73;;;2.55;82.99
77027;BME280;65956;52.986;17.490;2023-02-01T01:18:57;99143.85;;;2.51;82.88
77027;BME280;65956;52.986;17.490;2023-02-01T01:21:24;99150.42;;;2.51;82.65
77027;BME280;65956;52.986;17.490;2023-02-01T01:23:52;99156.59;;;2.47;82.80
77027;BME280;65956;52.986;17.490;2023-02-01T01:26:22;99164.52;;;2.48;82.71
77027;BME280;65956;52.986;17.490;2023-02-01T01:28:50;99163.83;;;2.50;82.54
77027;BME280;65956;52.986;17.490;2023-02-01T01:31:19;99172.52;;;2.54;82.24
77027;BME280;65956;52.986;17.490;2023-02-01T01:33:49;99158.83;;;2.54;82.17
77027;BME280;65956;52.986;17.490;2023-02-01T01:36:16;99166.45;;;2.54;82.29
77027;BME280;65956;52.986;17.490;2023-02-01T01:38:45;99171.05;;;2.55;82.05
77027;BME280;65956;52.986;17.490;2023-02-01T01:41:18;99166.05;;;2.61;81.99
77027;BME280;65956;52.986;17.490;2023-02-01T01:51:46;99175.65;;;2.75;81.36
77027;BME280;65956;52.986;17.490;2023-02-01T01:54:26;99167.02;;;2.79;81.07
77027;BME280;65956;52.986;17.490;2023-02-01T01:57:04;99172.10;;;2.81;81.09
77027;BME280;65956;52.986;17.490;2023-02-01T01:59:36;99161.14;;;2.80;80.95
77027;BME280;65956;52.986;17.490;2023-02-01T02:02:04;99164.55;;;2.80;80.76
77027;BME280;65956;52.986;17.490;2023-02-01T02:04:33;99159.48;;;2.81;80.20
77027;BME280;65956;52.986;17.490;2023-02-01T02:07:04;99157.79;;;2.83;79.98
77027;BME280;65956;52.986;17.490;2023-02-01T02:09:32;99160.93;;;2.77;79.56
77027;BME280;65956;52.986;17.490;2023-02-01T02:11:59;99170.98;;;2.73;79.21
77027;BME280;65956;52.986;17.490;2023-02-01T02:14:27;99167.05;;;2.73;79.25
77027;BME280;65956;52.986;17.490;2023-02-01T02:40:37;99173.58;;;2.93;78.07
77027;BME280;65956;52.986;17.490;2023-02-01T02:43:23;99179.84;;;2.98;78.06
77027;BME280;65956;52.986;17.490;2023-02-01T02:46:27;99179.85;;;2.95;77.88
77027;BME280;65956;52.986;17.490;2023-02-01T02:52:00;99184.67;;;2.96;78.01
77027;BME280;65956;52.986;17.490;2023-02-01T02:54:49;99188.02;;;2.95;78.18
77027;BME280;65956;52.986;17.490;2023-02-01T02:57:30;99196.08;;;2.96;77.97
77027;BME280;65956;52.986;17.490;2023-02-01T03:00:19;99176.17;;;3.02;77.65
77027;BME280;65956;52.986;17.490;2023-02-01T03:03:07;99187.64;;;3.04;77.44
77027;BME280;65956;52.986;17.490;2023-02-01T03:05:53;99192.25;;;3.06;77.10
77027;BME280;65956;52.986;17.490;2023-02-01T03:08:23;99192.14;;;3.07;77.06
77027;BME280;65956;52.986;17.490;2023-02-01T03:11:01;99191.52;;;3.05;77.48
77027;BME280;65956;52.986;17.490;2023-02-01T03:14:05;99195.83;;;3.04;77.21
77027;BME280;65956;52.986;17.490;2023-02-01T03:16:39;99200.55;;;3.04;77.38
77027;BME280;65956;52.986;17.490;2023-02-01T03:21:52;99196.29;;;3.07;77.39
77027;BME280;65956;52.986;17.490;2023-02-01T03:30:22;99204.73;;;3.13;77.18
77027;BME280;65956;52.986;17.490;2023-02-01T03:32:58;99199.58;;;3.14;77.49
77027;BME280;65956;52.986;17.490;2023-02-01T03:35:33;99199.79;;;3.11;77.69
77027;BME280;65956;52.986;17.490;2023-02-01T03:38:29;99199.14;;;3.10;77.64
77027;BME280;65956;52.986;17.490;2023-02-01T03:41:11;99198.48;;;3.11;77.81
77027;BME280;65956;52.986;17.490;2023-02-01T03:43:51;99184.12;;;3.10;77.77
77027;BME280;65956;52.986;17.490;2023-02-01T03:46:29;99180.54;;;3.09;78.22
77027;BME280;65956;52.986;17.490;2023-02-01T03:49:06;99195.00;;;3.08;77.85
77027;BME280;65956;52.986;17.490;2023-02-01T03:51:38;99182.17;;;3.13;77.56
77027;BME280;65956;52.986;17.490;2023-02-01T03:54:10;99182.88;;;3.11;77.56
77027;BME280;65956;52.986;17.490;2023-02-01T03:56:42;99178.06;;;3.12;77.62
77027;BME280;65956;52.986;17.490;2023-02-01T03:59:12;99179.41;;;3.13;77.47
77027;BME280;65956;52.986;17.490;2023-02-01T04:01:40;99170.93;;;3.13;77.63
77027;BME280;65956;52.986;17.490;2023-02-01T04:04:08;99179.56;;;3.13;77.59
77027;BME280;65956;52.986;17.490;2023-02-01T04:06:37;99178.35;;;3.14;77.84
77027;BME280;65956;52.986;17.490;2023-02-01T04:09:05;99173.76;;;3.16;77.89
77027;BME280;65956;52.986;17.490;2023-02-01T04:11:32;99176.70;;;3.16;77.79
77027;BME280;65956;52.986;17.490;2023-02-01T04:13:59;99177.19;;;3.14;78.33
77027;BME280;65956;52.986;17.490;2023-02-01T04:16:31;99164.98;;;3.09;78.83
77027;BME280;65956;52.986;17.490;2023-02-01T04:18:59;99167.41;;;3.05;78.88
77027;BME280;65956;52.986;17.490;2023-02-01T04:21:27;99158.91;;;3.02;78.77
77027;BME280;65956;52.986;17.490;2023-02-01T04:23:54;99159.52;;;3.02;78.71
77027;BME280;65956;52.986;17.490;2023-02-01T04:26:21;99160.59;;;3.03;78.64
77027;BME280;65956;52.986;17.490;2023-02-01T04:28:49;99151.40;;;3.04;78.70
77027;BME280;65956;52.986;17.490;2023-02-01T04:31:17;99164.83;;;3.03;78.86
77027;BME280;65956;52.986;17.490;2023-02-01T04:33:44;99169.46;;;3.03;78.82
77027;BME280;65956;52.986;17.490;2023-02-01T04:36:11;99150.70;;;3.04;78.37
77027;BME280;65956;52.986;17.490;2023-02-01T04:38:38;99157.80;;;3.02;78.51
77027;BME280;65956;52.986;17.490;2023-02-01T04:41:06;99151.18;;;2.96;78.50
77027;BME280;65956;52.986;17.490;2023-02-01T04:43:33;99155.83;;;2.94;78.52
77027;BME280;65956;52.986;17.490;2023-02-01T04:46:00;99155.28;;;2.94;78.51
77027;BME280;65956;52.986;17.490;2023-02-01T04:48:27;99155.26;;;2.93;78.37
77027;BME280;65956;52.986;17.490;2023-02-01T04:50:54;99159.27;;;2.93;78.66
77027;BME280;65956;52.986;17.490;2023-02-01T04:53:21;99162.43;;;2.94;78.57
77027;BME280;65956;52.986;17.490;2023-02-01T04:55:49;99155.76;;;2.96;78.38
77027;BME280;65956;52.986;17.490;2023-02-01T04:58:17;99150.54;;;3.01;78.29
77027;BME280;65956;52.986;17.490;2023-02-01T05:00:44;99140.17;;;3.04;77.96
77027;BME280;65956;52.986;17.490;2023-02-01T05:03:11;99151.11;;;3.08;77.68
77027;BME280;65956;52.986;17.490;2023-02-01T05:05:38;99142.80;;;3.11;77.35
77027;BME280;65956;52.986;17.490;2023-02-01T05:08:06;99148.05;;;3.14;77.40
77027;BME280;65956;52.986;17.490;2023-02-01T05:10:33;99138.30;;;3.14;77.44
77027;BME280;65956;52.986;17.490;2023-02-01T05:13:00;99142.55;;;3.14;77.53
77027;BME280;65956;52.986;17.490;2023-02-01T05:15:46;99130.36;;;3.16;77.38
77027;BME280;65956;52.986;17.490;2023-02-01T05:18:13;99138.12;;;3.18;77.33
77027;BME280;65956;52.986;17.490;2023-02-01T05:20:40;99137.83;;;3.19;77.07
77027;BME280;65956;52.986;17.490;2023-02-01T05:23:07;99130.24;;;3.21;76.93
77027;BME280;65956;52.986;17.490;2023-02-01T05:25:34;99134.40;;;3.24;77.10
77027;BME280;65956;52.986;17.490;2023-02-01T05:28:02;99135.89;;;3.24;77.04
77027;BME280;65956;52.986;17.490;2023-02-01T05:30:29;99132.48;;;3.28;76.55
77027;BME280;65956;52.986;17.490;2023-02-01T05:32:56;99133.66;;;3.28;76.53
77027;BME280;65956;52.986;17.490;2023-02-01T05:35:23;99139.21;;;3.27;76.54
77027;BME280;65956;52.986;17.490;2023-02-01T05:37:50;99121.42;;;3.26;76.56
77027;BME280;65956;52.986;17.490;2023-02-01T05:40:18;99122.81;;;3.28;76.37
77027;BME280;65956;52.986;17.490;2023-02-01T05:42:46;99131.66;;;3.27;76.42
77027;BME280;65956;52.986;17.490;2023-02-01T05:45:15;99125.48;;;3.26;76.49
77027;BME280;65956;52.986;17.490;2023-02-01T05:47:42;99125.97;;;3.23;76.45
77027;BME280;65956;52.986;17.490;2023-02-01T05:50:09;99135.91;;;3.21;76.74
77027;BME280;65956;52.986;17.490;2023-02-01T05:52:37;99138.17;;;3.17;77.12
77027;BME280;65956;52.986;17.490;2023-02-01T05:55:04;99145.30;;;3.11;77.65
77027;BME280;65956;52.986;17.490;2023-02-01T05:57:31;99146.90;;;3.06;78.08
77027;BME280;65956;52.986;17.490;2023-02-01T05:59:59;99147.67;;;3.06;77.67
77027;BME280;65956;52.986;17.490;2023-02-01T06:02:26;99144.41;;;3.02;77.95
77027;BME280;65956;52.986;17.490;2023-02-01T06:04:53;99154.09;;;2.96;78.06
77027;BME280;65956;52.986;17.490;2023-02-01T06:07:20;99152.96;;;2.95;78.36
77027;BME280;65956;52.986;17.490;2023-02-01T06:09:48;99158.94;;;2.98;78.27
77027;BME280;65956;52.986;17.490;2023-02-01T06:12:16;99158.41;;;2.99;78.13
77027;BME280;65956;52.986;17.490;2023-02-01T06:14:43;99162.83;;;2.99;77.97
77027;BME280;65956;52.986;17.490;2023-02-01T06:17:10;99166.41;;;3.01;78.08
77027;BME280;65956;52.986;17.490;2023-02-01T06:19:37;99158.31;;;2.98;78.18
77027;BME280;65956;52.986;17.490;2023-02-01T06:22:04;99164.00;;;2.91;78.50
77027;BME280;65956;52.986;17.490;2023-02-01T06:24:33;99160.23;;;2.83;79.22
77027;BME280;65956;52.986;17.490;2023-02-01T06:27:00;99171.24;;;2.75;79.66
77027;BME280;65956;52.986;17.490;2023-02-01T06:29:27;99168.97;;;2.72;79.94
77027;BME280;65956;52.986;17.490;2023-02-01T06:31:54;99180.45;;;2.70;80.24
77027;BME280;65956;52.986;17.490;2023-02-01T06:34:21;99169.09;;;2.71;80.26
77027;BME280;65956;52.986;17.490;2023-02-01T06:36:50;99179.90;;;2.72;79.92
77027;BME280;65956;52.986;17.490;2023-02-01T06:39:17;99178.36;;;2.76;79.83
77027;BME280;65956;52.986;17.490;2023-02-01T06:41:48;99184.80;;;2.76;79.95
77027;BME280;65956;52.986;17.490;2023-02-01T06:44:16;99180.03;;;2.77;80.17
77027;BME280;65956;52.986;17.490;2023-02-01T06:46:43;99179.58;;;2.75;80.41
77027;BME280;65956;52.986;17.490;2023-02-01T06:49:11;99183.86;;;2.73;80.62
77027;BME280;65956;52.986;17.490;2023-02-01T06:51:38;99179.63;;;2.71;80.75
77027;BME280;65956;52.986;17.490;2023-02-01T06:54:05;99178.98;;;2.70;80.89
77027;BME280;65956;52.986;17.490;2023-02-01T06:56:32;99187.77;;;2.72;80.97
77027;BME280;65956;52.986;17.490;2023-02-01T06:58:59;99183.76;;;2.72;80.85
77027;BME280;65956;52.986;17.490;2023-02-01T07:01:29;99184.65;;;2.73;80.70
77027;BME280;65956;52.986;17.490;2023-02-01T07:03:57;99187.35;;;2.75;80.54
77027;BME280;65956;52.986;17.490;2023-02-01T07:06:24;99180.39;;;2.79;80.35
77027;BME280;65956;52.986;17.490;2023-02-01T07:08:52;99186.05;;;2.81;79.82
77027;BME280;65956;52.986;17.490;2023-02-01T07:11:23;99189.30;;;2.80;80.23
77027;BME280;65956;52.986;17.490;2023-02-01T07:13:50;99187.48;;;2.77;80.63
77027;BME280;65956;52.986;17.490;2023-02-01T07:16:19;99192.93;;;2.75;80.90
77027;BME280;65956;52.986;17.490;2023-02-01T07:18:47;99198.28;;;2.72;81.38
77027;BME280;65956;52.986;17.490;2023-02-01T07:21:14;99195.17;;;2.70;81.65
77027;BME280;65956;52.986;17.490;2023-02-01T07:23:42;99197.95;;;2.74;81.56
77027;BME280;65956;52.986;17.490;2023-02-01T07:26:12;99199.91;;;2.80;81.72
77027;BME280;65956;52.986;17.490;2023-02-01T07:28:40;99201.20;;;2.84;81.83
77027;BME280;65956;52.986;17.490;2023-02-01T07:31:13;99199.33;;;2.84;81.91
77027;BME280;65956;52.986;17.490;2023-02-01T07:33:49;99196.49;;;2.87;82.25
77027;BME280;65956;52.986;17.490;2023-02-01T07:36:19;99196.73;;;2.87;82.43
77027;BME280;65956;52.986;17.490;2023-02-01T07:38:46;99190.94;;;2.85;82.68
77027;BME280;65956;52.986;17.490;2023-02-01T07:41:16;99199.77;;;2.83;82.73
77027;BME280;65956;52.986;17.490;2023-02-01T07:43:45;99195.84;;;2.91;83.04
77027;BME280;65956;52.986;17.490;2023-02-01T07:46:13;99200.65;;;2.94;83.04
77027;BME280;65956;52.986;17.490;2023-02-01T07:48:42;99204.41;;;2.94;83.42
77027;BME280;65956;52.986;17.490;2023-02-01T07:51:13;99203.36;;;2.95;83.45
77027;BME280;65956;52.986;17.490;2023-02-01T07:53:42;99193.02;;;2.99;83.53
77027;BME280;65956;52.986;17.490;2023-02-01T07:56:15;99191.36;;;3.05;83.27
77027;BME280;65956;52.986;17.490;2023-02-01T07:58:46;99204.73;;;2.99;83.31
77027;BME280;65956;52.986;17.490;2023-02-01T08:01:16;99199.10;;;2.84;83.78
77027;BME280;65956;52.986;17.490;2023-02-01T08:04:03;99197.40;;;2.64;84.45
77027;BME280;65956;52.986;17.490;2023-02-01T08:06:32;99190.59;;;2.47;85.29
77027;BME280;65956;52.986;17.490;2023-02-01T08:09:01;99199.78;;;2.37;85.95
77027;BME280;65956;52.986;17.490;2023-02-01T08:11:29;99194.20;;;2.29;86.48
77027;BME280;65956;52.986;17.490;2023-02-01T08:13:57;99187.54;;;2.24;86.68
77027;BME280;65956;52.986;17.490;2023-02-01T08:16:25;99193.79;;;2.24;87.21
77027;BME280;65956;52.986;17.490;2023-02-01T08:18:53;99198.19;;;2.29;87.53
77027;BME280;65956;52.986;17.490;2023-02-01T08:21:26;99193.88;;;2.34;87.66
77027;BME280;65956;52.986;17.490;2023-02-01T08:24:04;99201.20;;;2.37;87.61
77027;BME280;65956;52.986;17.490;2023-02-01T08:26:32;99206.00;;;2.39;87.73
77027;BME280;65956;52.986;17.490;2023-02-01T08:29:02;99188.77;;;2.47;87.59
77027;BME280;65956;52.986;17.490;2023-02-01T08:31:30;99185.33;;;2.54;87.65
77027;BME280;65956;52.986;17.490;2023-02-01T08:34:00;99187.85;;;2.55;87.46
77027;BME280;65956;52.986;17.490;2023-02-01T08:36:30;99188.91;;;2.48;87.31
77027;BME280;65956;52.986;17.490;2023-02-01T08:38:57;99191.35;;;2.44;87.31
77027;BME280;65956;52.986;17.490;2023-02-01T08:41:27;99187.41;;;2.40;87.31
77027;BME280;65956;52.986;17.490;2023-02-01T08:43:56;99191.31;;;2.40;87.47
77027;BME280;65956;52.986;17.490;2023-02-01T08:46:24;99181.23;;;2.39;87.49
77027;BME280;65956;52.986;17.490;2023-02-01T08:48:52;99188.38;;;2.41;87.49
77027;BME280;65956;52.986;17.490;2023-02-01T08:51:21;99190.96;;;2.49;87.65
77027;BME280;65956;52.986;17.490;2023-02-01T08:53:49;99193.09;;;2.56;87.53
77027;BME280;65956;52.986;17.490;2023-02-01T08:56:17;99191.83;;;2.61;87.63
77027;BME280;65956;52.986;17.490;2023-02-01T08:58:45;99184.31;;;2.65;87.69
77027;BME280;65956;52.986;17.490;2023-02-01T09:01:16;99184.63;;;2.68;87.34
77027;BME280;65956;52.986;17.490;2023-02-01T09:03:44;99184.48;;;2.68;87.50
77027;BME280;65956;52.986;17.490;2023-02-01T09:06:14;99180.14;;;2.70;87.31
77027;BME280;65956;52.986;17.490;2023-02-01T09:08:42;99195.63;;;2.72;87.42
77027;BME280;65956;52.986;17.490;2023-02-01T09:11:15;99175.48;;;2.75;86.98
77027;BME280;65956;52.986;17.490;2023-02-01T09:13:42;99182.02;;;2.75;86.84
77027;BME280;65956;52.986;17.490;2023-02-01T09:16:10;99189.07;;;2.74;86.49
77027;BME280;65956;52.986;17.490;2023-02-01T09:18:37;99191.59;;;2.72;86.52
77027;BME280;65956;52.986;17.490;2023-02-01T09:21:05;99188.81;;;2.71;86.40
77027;BME280;65956;52.986;17.490;2023-02-01T09:23:34;99186.87;;;2.72;86.11
77027;BME280;65956;52.986;17.490;2023-02-01T09:26:03;99183.83;;;2.84;86.18
77027;BME280;65956;52.986;17.490;2023-02-01T09:28:31;99183.63;;;2.90;86.20
77027;BME280;65956;52.986;17.490;2023-02-01T09:30:59;99186.42;;;2.92;85.59
77027;BME280;65956;52.986;17.490;2023-02-01T09:33:28;99183.45;;;2.95;85.67
77027;BME280;65956;52.986;17.490;2023-02-01T09:35:57;99173.81;;;3.06;85.70
77027;BME280;65956;52.986;17.490;2023-02-01T09:38:25;99176.51;;;3.13;85.44
77027;BME280;65956;52.986;17.490;2023-02-01T09:40:54;99172.95;;;3.18;85.06
77027;BME280;65956;52.986;17.490;2023-02-01T09:48:57;99166.73;;;3.33;84.55
77027;BME280;65956;52.986;17.490;2023-02-01T09:51:57;99162.07;;;3.37;84.46
77027;BME280;65956;52.986;17.490;2023-02-01T09:54:40;99150.34;;;3.46;84.63
77027;BME280;65956;52.986;17.490;2023-02-01T09:57:44;99159.16;;;3.58;84.28
77027;BME280;65956;52.986;17.490;2023-02-01T10:00:19;99155.19;;;3.82;83.80
77027;BME280;65956;52.986;17.490;2023-02-01T10:02:51;99156.00;;;3.98;83.38
77027;BME280;65956;52.986;17.490;2023-02-01T10:11:32;99147.52;;;4.46;82.71
77027;BME280;65956;52.986;17.490;2023-02-01T10:17:20;99141.99;;;4.87;82.06
77027;BME280;65956;52.986;17.490;2023-02-01T10:23:00;99130.17;;;4.98;81.03
77027;BME280;65956;52.986;17.490;2023-02-01T10:25:48;99135.77;;;5.10;81.09
77027;BME280;65956;52.986;17.490;2023-02-01T10:28:18;99132.70;;;5.14;80.59
77027;BME280;65956;52.986;17.490;2023-02-01T10:30:48;99126.05;;;5.10;80.05
77027;BME280;65956;52.986;17.490;2023-02-01T10:33:25;99121.75;;;5.04;80.53
77027;BME280;65956;52.986;17.490;2023-02-01T10:36:01;99125.81;;;4.94;80.33
77027;BME280;65956;52.986;17.490;2023-02-01T10:38:31;99128.20;;;4.91;79.45
77027;BME280;65956;52.986;17.490;2023-02-01T10:41:17;99127.33;;;4.95;79.47
77027;BME280;65956;52.986;17.490;2023-02-01T10:43:52;99129.94;;;4.99;79.23
77027;BME280;65956;52.986;17.490;2023-02-01T10:46:23;99129.05;;;5.02;78.74
77027;BME280;65956;52.986;17.490;2023-02-01T10:48:52;99135.08;;;4.96;78.26
77027;BME280;65956;52.986;17.490;2023-02-01T10:51:24;99132.02;;;4.89;78.71
77027;BME280;65956;52.986;17.490;2023-02-01T10:53:58;99127.59;;;4.80;79.34
77027;BME280;65956;52.986;17.490;2023-02-01T10:56:28;99131.95;;;4.74;80.06
77027;BME280;65956;52.986;17.490;2023-02-01T10:59:05;99132.23;;;4.69;79.96
77027;BME280;65956;52.986;17.490;2023-02-01T11:01:42;99129.11;;;4.63;79.73
77027;BME280;65956;52.986;17.490;2023-02-01T11:04:19;99130.41;;;4.68;79.95
77027;BME280;65956;52.986;17.490;2023-02-01T11:06:51;99128.28;;;4.80;80.17
77027;BME280;65956;52.986;17.490;2023-02-01T11:09:24;99132.61;;;4.86;79.60
77027;BME280;65956;52.986;17.490;2023-02-01T11:14:32;99127.74;;;4.73;79.81
77027;BME280;65956;52.986;17.490;2023-02-01T11:19:56;99129.89;;;4.43;80.56
77027;BME280;65956;52.986;17.490;2023-02-01T11:22:25;99128.42;;;4.28;81.45
77027;BME280;65956;52.986;17.490;2023-02-01T11:24:56;99124.36;;;4.20;82.18
77027;BME280;65956;52.986;17.490;2023-02-01T11:27:25;99121.26;;;4.17;82.81
77027;BME280;65956;52.986;17.490;2023-02-01T11:29:56;99120.30;;;4.24;82.73
77027;BME280;65956;52.986;17.490;2023-02-01T11:32:26;99126.52;;;4.24;82.74
77027;BME280;65956;52.986;17.490;2023-02-01T11:35:18;99124.38;;;4.20;82.80
77027;BME280;65956;52.986;17.490;2023-02-01T11:37:52;99119.08;;;4.12;83.10
77027;BME280;65956;52.986;17.490;2023-02-01T11:43:11;99114.28;;;3.96;83.69
77027;BME280;65956;52.986;17.490;2023-02-01T11:45:40;99119.16;;;3.93;84.00
77027;BME280;65956;52.986;17.490;2023-02-01T11:48:10;99115.86;;;3.99;83.92
77027;BME280;65956;52.986;17.490;2023-02-01T11:53:24;99126.09;;;3.89;84.27
77027;BME280;65956;52.986;17.490;2023-02-01T12:07:19;99110.19;;;3.82;85.15
77027;BME280;65956;52.986;17.490;2023-02-01T12:10:16;99115.31;;;3.83;85.12
77027;BME280;65956;52.986;17.490;2023-02-01T12:21:12;99106.20;;;3.84;84.65
77027;BME280;65956;52.986;17.490;2023-02-01T12:32:31;99095.91;;;3.92;84.72
77027;BME280;65956;52.986;17.490;2023-02-01T12:38:20;99097.61;;;3.94;84.18
77027;BME280;65956;52.986;17.490;2023-02-01T12:43:42;99097.61;;;3.94;84.22
77027;BME280;65956;52.986;17.490;2023-02-01T12:46:21;99091.91;;;3.89;84.36
77027;BME280;65956;52.986;17.490;2023-02-01T12:51:19;99098.86;;;3.86;83.98
77027;BME280;65956;52.986;17.490;2023-02-01T12:56:26;99098.59;;;3.82;83.63
77027;BME280;65956;52.986;17.490;2023-02-01T12:58:58;99105.35;;;3.81;83.77
77027;BME280;65956;52.986;17.490;2023-02-01T13:06:41;99094.84;;;3.93;83.36
77027;BME280;65956;52.986;17.490;2023-02-01T13:11:45;99100.44;;;4.17;82.30
77027;BME280;65956;52.986;17.490;2023-02-01T13:17:03;99086.44;;;4.17;82.18
77027;BME280;65956;52.986;17.490;2023-02-01T13:19:53;99094.91;;;4.16;82.16
77027;BME280;65956;52.986;17.490;2023-02-01T13:25:15;99084.14;;;4.00;82.59
77027;BME280;65956;52.986;17.490;2023-02-01T13:27:45;99084.83;;;3.96;82.41
77027;BME280;65956;52.986;17.490;2023-02-01T13:41:51;99095.13;;;3.88;82.09
77027;BME280;65956;52.986;17.490;2023-02-01T13:44:30;99099.48;;;3.96;82.07
77027;BME280;65956;52.986;17.490;2023-02-01T13:47:02;99101.67;;;4.05;81.68
77027;BME280;65956;52.986;17.490;2023-02-01T13:49:37;99098.41;;;4.10;81.27
77027;BME280;65956;52.986;17.490;2023-02-01T13:52:05;99104.02;;;4.08;81.20
77027;BME280;65956;52.986;17.490;2023-02-01T13:54:36;99106.52;;;4.07;81.49
77027;BME280;65956;52.986;17.490;2023-02-01T13:59:53;99092.98;;;4.00;81.83
77027;BME280;65956;52.986;17.490;2023-02-01T14:13:47;99106.75;;;3.97;80.70
77027;BME280;65956;52.986;17.490;2023-02-01T14:16:16;99105.59;;;4.01;81.65
77027;BME280;65956;52.986;17.490;2023-02-01T14:18:48;99094.60;;;4.16;80.94
77027;BME280;65956;52.986;17.490;2023-02-01T14:21:50;99094.30;;;4.20;80.46
77027;BME280;65956;52.986;17.490;2023-02-01T14:24:51;99091.77;;;4.09;79.75
77027;BME280;65956;52.986;17.490;2023-02-01T14:27:28;99103.45;;;4.04;79.71
77027;BME280;65956;52.986;17.490;2023-02-01T14:29:58;99103.31;;;4.04;79.91
77027;BME280;65956;52.986;17.490;2023-02-01T14:32:40;99113.06;;;3.97;80.54
77027;BME280;65956;52.986;17.490;2023-02-01T14:35:19;99105.77;;;3.89;81.02
77027;BME280;65956;52.986;17.490;2023-02-01T14:37:51;99099.27;;;3.80;81.22
77027;BME280;65956;52.986;17.490;2023-02-01T14:40:24;99107.72;;;3.72;81.65
77027;BME280;65956;52.986;17.490;2023-02-01T14:42:53;99112.09;;;3.67;81.64
77027;BME280;65956;52.986;17.490;2023-02-01T15:01:53;99119.48;;;3.36;81.96
77027;BME280;65956;52.986;17.490;2023-02-01T15:04:26;99127.52;;;3.33;82.48
77027;BME280;65956;52.986;17.490;2023-02-01T15:06:55;99123.48;;;3.30;82.67
77027;BME280;65956;52.986;17.490;2023-02-01T15:09:41;99124.39;;;3.28;82.64
77027;BME280;65956;52.986;17.490;2023-02-01T15:15:05;99135.44;;;3.21;83.33
77027;BME280;65956;52.986;17.490;2023-02-01T15:17:36;99134.58;;;3.19;83.45
77027;BME280;65956;52.986;17.490;2023-02-01T15:20:14;99143.67;;;3.17;83.59
77027;BME280;65956;52.986;17.490;2023-02-01T15:22:52;99138.63;;;3.14;83.56
77027;BME280;65956;52.986;17.490;2023-02-01T15:25:23;99140.73;;;3.13;83.51
77027;BME280;65956;52.986;17.490;2023-02-01T15:27:51;99140.04;;;3.14;83.41
77027;BME280;65956;52.986;17.490;2023-02-01T15:30:24;99144.86;;;3.15;83.58
77027;BME280;65956;52.986;17.490;2023-02-01T15:33:25;99145.05;;;3.15;83.68
77027;BME280;65956;52.986;17.490;2023-02-01T15:36:11;99141.39;;;3.14;83.68
77027;BME280;65956;52.986;17.490;2023-02-01T15:38:44;99147.64;;;3.12;83.89
77027;BME280;65956;52.986;17.490;2023-02-01T15:41:17;99146.45;;;3.12;83.94
77027;BME280;65956;52.986;17.490;2023-02-01T15:46:29;99151.36;;;3.14;83.73
77027;BME280;65956;52.986;17.490;2023-02-01T15:48:58;99151.00;;;3.15;83.67
77027;BME280;65956;52.986;17.490;2023-02-01T15:51:28;99139.42;;;3.14;83.79
77027;BME280;65956;52.986;17.490;2023-02-01T15:54:02;99145.34;;;3.12;83.78
77027;BME280;65956;52.986;17.490;2023-02-01T15:56:37;99152.39;;;3.08;83.89
77027;BME280;65956;52.986;17.490;2023-02-01T15:59:21;99145.49;;;3.03;83.95
77027;BME280;65956;52.986;17.490;2023-02-01T16:01:49;99148.73;;;2.98;84.00
77027;BME280;65956;52.986;17.490;2023-02-01T16:04:21;99148.04;;;2.93;83.85
77027;BME280;65956;52.986;17.490;2023-02-01T16:06:54;99149.83;;;2.88;84.05
77027;BME280;65956;52.986;17.490;2023-02-01T16:09:25;99149.73;;;2.84;84.45
77027;BME280;65956;52.986;17.490;2023-02-01T16:12:03;99145.91;;;2.82;84.53
77027;BME280;65956;52.986;17.490;2023-02-01T16:14:30;99141.91;;;2.77;84.65
77027;BME280;65956;52.986;17.490;2023-02-01T16:16:58;99138.39;;;2.72;84.69